Monday, December 18, 2017, 5:26 PM EST
Back to Local

KEWB, New Bedford Regional Airport

Location: New Bedford, MA, United States Lat: 41.683
Local Time: 5:26 PM EST (22:26 GMT) Lon: -70.967
Time Zone: US/Eastern Elev: 78 ft

Show me the last for .
Show Decoded

2017-12-18 16:53 METAR KEWB 182153Z 13003KT 7SM OVC004 03/03 A2995 RMK AO2 SLP141 T00280028 =
2017-12-18 16:30 METAR KEWB 182130Z 14006KT 7SM OVC006 03/03 A2994 RMK AO2 T00280028 =
2017-12-18 16:23 METAR KEWB 182123Z 14005KT 9SM OVC008 03/02 A2995 RMK AO2 CIG 006V009 T00280022
                 =
2017-12-18 15:53 METAR KEWB 182053Z 00000KT 10SM OVC011 03/01 A2997 RMK AO2 SLP148 T00280011
                 56021 =
2017-12-18 15:25 METAR KEWB 182025Z 09003KT 10SM OVC014 03/01 A2998 RMK AO2 T00330006 =
2017-12-18 14:53 METAR KEWB 181953Z 00000KT 10SM OVC016 03/01 A2999 RMK AO2 SLP155 T00330006 =
2017-12-18 13:53 METAR KEWB 181853Z 12005KT 10SM BKN020 OVC025 03/01 A3000 RMK AO2 SLP160
                 T00330006 =
2017-12-18 13:17 METAR KEWB 181817Z 13004KT 10SM BKN024 OVC042 03/00 A3002 RMK AO2 T00330000 =
2017-12-18 12:53 METAR KEWB 181753Z 13005KT 10SM SCT033 OVC045 03/M01 A3003 RMK AO2 SLP169
                 T00281006 10028 21033 56039 =
2017-12-18 11:53 METAR KEWB 181653Z 13008KT 10SM BKN037 OVC060 02/M02 A3005 RMK AO2 SLP177
                 T00221022 =
2017-12-18 10:53 METAR KEWB 181553Z 14007KT 10SM BKN047 OVC055 02/M03 A3009 RMK AO2 SLP191
                 T00171033 =
2017-12-18 10:04 METAR KEWB 181504Z 13004KT 10SM FEW042 OVC055 00/M05 A3013 RMK AO2 T00001050 =
2017-12-18 09:53 METAR KEWB 181453Z COR 13003KT 10SM OVC060 00/M06 A3014 RMK AO2 SLP208 T00001056
                 58016 =
2017-12-18 08:53 METAR KEWB 181353Z 00000KT 10SM OVC029 M02/M08 A3016 RMK AO2 SLP214 T10171078 =
2017-12-18 07:53 METAR KEWB 181253Z 00000KT 10SM OVC023 M03/M08 A3017 RMK AO2 SLP218 T10331078 =
2017-12-18 06:53 METAR KEWB 181153Z 00000KT 10SM OVC025 M03/M09 A3019 RMK AO2 SLP224 T10331089
                 11033 21061 53001 =
2017-12-18 05:53 METAR KEWB 181053Z AUTO 00000KT 10SM OVC027 M04/M09 A3018 RMK AO2 SLP220
                 T10391089 =
2017-12-18 04:53 METAR KEWB 180953Z AUTO 00000KT 10SM OVC029 M03/M09 A3019 RMK AO2 SLP223
                 T10331089 =
2017-12-18 04:48 METAR KEWB 180948Z AUTO 00000KT 10SM OVC029 M04/M09 A3019 RMK AO2 =
2017-12-18 03:53 METAR KEWB 180853Z AUTO 00000KT 10SM FEW044 SCT080 OVC110 M04/M09 A3021 RMK AO2
                 SLP229 T10391094 58008 =
2017-12-18 02:53 METAR KEWB 180753Z AUTO 00000KT 10SM OVC070 M04/M08 A3022 RMK AO2 SLP235
                 T10441078 =
2017-12-18 01:53 METAR KEWB 180653Z AUTO 00000KT 10SM OVC070 M05/M07 A3023 RMK AO2 SLP237
                 T10501072 =
2017-12-18 00:53 METAR KEWB 180553Z AUTO 00000KT 10SM SCT080 M06/M08 A3023 RMK AO2 SLP237
                 T10611078 11039 21067 58011 =
2017-12-17 23:53 METAR KEWB 180453Z AUTO 00000KT 10SM CLR M06/M08 A3024 RMK AO2 SLP241 T10611083
                 410111117 =
2017-12-17 22:53 METAR KEWB 180353Z AUTO 26003KT 10SM CLR M06/M08 A3026 RMK AO2 SLP246 T10561078
                 =
2017-12-17 21:53 METAR KEWB 180253Z 00000KT 10SM CLR M05/M09 A3026 RMK AO2 SLP249 T10501089 50002
                 =
2017-12-17 20:53 METAR KEWB 180153Z 00000KT 10SM CLR M05/M09 A3028 RMK AO2 SLP253 T10501089 =
2017-12-17 19:53 METAR KEWB 180053Z 00000KT 10SM CLR M06/M11 A3028 RMK AO2 SLP253 T10561106 =
2017-12-17 18:53 METAR KEWB 172353Z 03003KT 10SM CLR M05/M11 A3026 RMK AO2 SLP247 T10501111 11017
                 21050 53009 =
2017-12-17 17:53 METAR KEWB 172253Z 00000KT 10SM CLR M04/M13 A3024 RMK AO2 SLP242 T10391133 =

Support USWX by starting your Amazon purchase here.